createdAt,value
2019-01-02T00:00:34.856Z,80.00
2019-01-02T00:03:04.630Z,80.00
2019-01-02T00:05:34.211Z,79.90
2019-01-02T00:08:03.609Z,80.00
2019-01-02T00:10:33.542Z,80.00
2019-01-02T00:13:02.917Z,80.00
2019-01-02T00:15:32.557Z,80.00
2019-01-02T00:18:01.888Z,80.10
2019-01-02T00:20:31.273Z,80.10
2019-01-02T00:23:01.132Z,80.20
2019-01-02T00:25:30.545Z,80.30
2019-01-02T00:27:59.942Z,80.30
2019-01-02T00:30:29.279Z,80.20
2019-01-02T00:32:59.395Z,80.20
2019-01-02T00:35:29.022Z,80.10
2019-01-02T00:37:58.705Z,80.10
2019-01-02T00:40:28.082Z,80.10
2019-01-02T00:42:57.374Z,80.10
2019-01-02T00:45:26.821Z,80.00
2019-01-02T00:47:56.503Z,80.10
2019-01-02T00:50:25.803Z,80.00
2019-01-02T00:52:55.091Z,80.10
2019-01-02T00:55:24.857Z,80.10
2019-01-02T00:57:54.217Z,80.10
2019-01-02T01:00:26.004Z,80.10
2019-01-02T01:02:55.691Z,80.10
2019-01-02T01:05:24.978Z,80.10
2019-01-02T01:07:54.361Z,80.10
2019-01-02T01:10:23.633Z,80.10
2019-01-02T01:12:53.025Z,80.20
2019-01-02T01:15:22.617Z,80.20
2019-01-02T01:17:52.029Z,80.10
2019-01-02T01:20:21.941Z,80.10
2019-01-02T01:22:51.275Z,80.20
2019-01-02T01:25:20.908Z,80.20
2019-01-02T01:27:50.222Z,80.20
2019-01-02T01:30:19.925Z,80.10
2019-01-02T01:32:49.274Z,80.20
2019-01-02T01:35:19.024Z,80.20
2019-01-02T01:37:53.492Z,80.10
2019-01-02T01:40:23.103Z,80.10
2019-01-02T01:42:52.407Z,80.20
2019-01-02T01:45:22.106Z,80.10
2019-01-02T01:47:51.476Z,80.20
2019-01-02T01:50:21.814Z,80.10
2019-01-02T01:52:51.509Z,80.00
2019-01-02T01:55:20.955Z,80.10
2019-01-02T01:57:51.002Z,80.00
2019-01-02T02:00:21.626Z,80.00
2019-01-02T02:02:51.712Z,80.00
2019-01-02T02:05:21.330Z,80.00
2019-01-02T02:07:50.687Z,79.80
2019-01-02T02:10:20.529Z,79.80
2019-01-02T02:12:49.861Z,79.80
2019-01-02T02:15:19.170Z,79.80
2019-01-02T02:17:48.857Z,79.80
2019-01-02T02:20:18.193Z,79.80
2019-01-02T02:22:47.684Z,79.80
2019-01-02T02:25:19.194Z,79.80
2019-01-02T02:27:48.482Z,79.70
2019-01-02T02:30:18.148Z,80.50
2019-01-02T02:32:49.360Z,79.80
2019-01-02T02:35:19.028Z,79.70
2019-01-02T02:37:48.333Z,79.80
2019-01-02T02:40:18.015Z,79.80
2019-01-02T02:42:47.374Z,79.80
2019-01-02T02:45:17.001Z,79.80
2019-01-02T02:47:46.648Z,79.90
2019-01-02T02:50:16.937Z,79.80
2019-01-02T02:52:46.597Z,79.90
2019-01-02T02:55:22.268Z,79.80
2019-01-02T02:57:51.645Z,79.80
2019-01-02T03:00:20.936Z,79.80
2019-01-02T03:02:50.278Z,79.80
2019-01-02T03:05:19.598Z,79.90
2019-01-02T03:07:48.992Z,79.90
2019-01-02T03:10:18.634Z,79.90
2019-01-02T03:12:48.205Z,79.80
2019-01-02T03:15:17.711Z,79.90
2019-01-02T03:17:47.019Z,79.90
2019-01-02T03:20:16.759Z,79.90
2019-01-02T03:22:46.366Z,80.00
2019-01-02T03:25:16.329Z,80.00
2019-01-02T03:27:45.938Z,80.00
2019-01-02T03:30:17.675Z,79.90
2019-01-02T03:32:47.413Z,80.00
2019-01-02T03:35:17.092Z,79.90
2019-01-02T03:37:46.495Z,79.90
2019-01-02T03:40:16.156Z,79.90
2019-01-02T03:42:45.542Z,79.80
2019-01-02T03:45:17.201Z,79.80
2019-01-02T03:47:46.675Z,79.90
2019-01-02T03:50:17.702Z,79.90
2019-01-02T03:52:47.317Z,79.90
2019-01-02T03:55:16.753Z,79.90
2019-01-02T03:57:46.067Z,80.20
2019-01-02T04:00:17.557Z,80.00
2019-01-02T04:02:47.137Z,80.00
2019-01-02T04:05:18.585Z,80.00
2019-01-02T04:07:51.297Z,79.90
2019-01-02T04:10:21.007Z,79.90
2019-01-02T04:12:50.702Z,79.90
2019-01-02T04:15:20.084Z,79.80
2019-01-02T04:17:49.412Z,79.80
2019-01-02T04:20:18.770Z,79.80
2019-01-02T04:22:48.557Z,79.70
2019-01-02T04:25:17.829Z,79.60
2019-01-02T04:27:47.173Z,79.60
2019-01-02T04:30:16.674Z,79.80
2019-01-02T04:32:45.978Z,79.60
2019-01-02T04:35:15.384Z,80.40
2019-01-02T04:37:44.782Z,79.60
2019-01-02T04:40:14.339Z,79.60
2019-01-02T04:42:43.732Z,79.50
2019-01-02T04:45:13.058Z,79.60
2019-01-02T04:47:42.384Z,79.60
2019-01-02T04:50:13.434Z,79.70
2019-01-02T04:52:42.787Z,79.60
2019-01-02T04:55:12.184Z,79.50
2019-01-02T04:57:41.557Z,79.70
2019-01-02T05:00:16.189Z,79.70
2019-01-02T05:02:45.848Z,79.60
2019-01-02T05:05:16.219Z,79.60
2019-01-02T05:07:45.526Z,79.50
2019-01-02T05:10:15.243Z,79.50
2019-01-02T05:12:44.656Z,79.50
2019-01-02T05:15:13.935Z,79.40
2019-01-02T05:17:43.561Z,79.30
2019-01-02T05:20:15.093Z,79.20
2019-01-02T05:22:44.813Z,79.20
2019-01-02T05:25:14.184Z,79.10
2019-01-02T05:27:43.485Z,79.00
2019-01-02T05:30:15.270Z,78.90
2019-01-02T05:32:45.019Z,78.90
2019-01-02T05:35:14.660Z,78.90
2019-01-02T05:37:44.042Z,78.70
2019-01-02T05:40:15.869Z,78.60
2019-01-02T05:42:45.278Z,78.50
2019-01-02T05:45:14.708Z,78.60
2019-01-02T05:47:44.136Z,78.60
2019-01-02T05:50:13.401Z,78.70
2019-01-02T05:52:42.851Z,78.70
2019-01-02T05:55:12.228Z,78.60
2019-01-02T05:57:41.575Z,78.60
2019-01-02T06:00:13.312Z,78.70
2019-01-02T06:02:42.958Z,78.60
2019-01-02T06:05:12.377Z,78.50
2019-01-02T06:07:41.705Z,78.50
2019-01-02T06:10:15.325Z,78.40
2019-01-02T06:12:44.869Z,78.40
2019-01-02T06:15:15.989Z,78.50
2019-01-02T06:17:45.334Z,78.40
2019-01-02T06:20:16.499Z,78.30
2019-01-02T06:22:45.798Z,78.20
2019-01-02T06:25:15.492Z,78.20
2019-01-02T06:27:44.881Z,78.10
2019-01-02T06:30:14.423Z,77.90
2019-01-02T06:32:43.793Z,77.80
2019-01-02T06:35:13.126Z,77.80
2019-01-02T06:37:42.485Z,77.70
2019-01-02T06:40:13.507Z,77.70
2019-01-02T06:42:42.758Z,77.40
2019-01-02T06:45:14.254Z,77.50
2019-01-02T06:47:43.940Z,77.20
2019-01-02T06:50:16.485Z,77.30
2019-01-02T06:52:45.873Z,77.20
2019-01-02T06:55:15.306Z,77.30
2019-01-02T06:57:44.613Z,77.30
2019-01-02T07:00:17.884Z,77.40
2019-01-02T07:02:47.198Z,77.50
2019-01-02T07:05:16.685Z,77.60
2019-01-02T07:07:46.105Z,77.60
2019-01-02T07:10:15.491Z,77.60
2019-01-02T07:13:08.885Z,77.70
2019-01-02T07:15:38.234Z,77.60
2019-01-02T07:18:07.541Z,77.70
2019-01-02T07:20:37.261Z,77.80
2019-01-02T07:23:06.676Z,77.70
2019-01-02T07:25:35.988Z,78.20
2019-01-02T07:28:05.290Z,77.40
2019-01-02T07:30:34.627Z,77.40
2019-01-02T07:33:03.363Z,77.40
2019-01-02T07:36:06.555Z,77.30
2019-01-02T07:39:06.552Z,77.30
2019-01-02T07:42:40.947Z,77.40
2019-01-02T07:46:05.033Z,77.30
2019-01-02T07:49:11.267Z,77.30
2019-01-02T07:52:11.887Z,77.40
2019-01-02T07:55:29.881Z,77.50
2019-01-02T07:58:46.646Z,77.50
2019-01-02T08:01:46.906Z,77.50
2019-01-02T08:05:03.916Z,77.40
2019-01-02T08:08:09.997Z,77.30
2019-01-02T08:11:23.056Z,77.20
2019-01-02T08:14:32.685Z,77.20
2019-01-02T08:17:40.164Z,77.20
2019-01-02T08:20:49.079Z,77.10
2019-01-02T08:23:55.317Z,77.10
2019-01-02T08:27:20.514Z,77.00
2019-01-02T08:30:20.329Z,77.10
2019-01-02T08:33:30.681Z,76.90
2019-01-02T08:36:30.000Z,76.90
2019-01-02T08:39:52.415Z,76.80
2019-01-02T08:43:00.081Z,76.70
2019-01-02T08:46:03.722Z,76.70
2019-01-02T08:49:19.982Z,76.80
2019-01-02T08:52:49.090Z,76.80
2019-01-02T08:55:57.417Z,76.70
2019-01-02T08:59:13.463Z,76.70
2019-01-02T09:02:03.175Z,76.70
2019-01-02T09:05:00.750Z,76.70
2019-01-02T09:08:13.043Z,76.80
2019-01-02T09:11:36.109Z,76.80
2019-01-02T09:14:55.404Z,76.80
2019-01-02T09:17:54.785Z,76.90
2019-01-02T09:21:09.206Z,76.90
2019-01-02T09:24:02.765Z,76.80
2019-01-02T09:27:26.107Z,76.80
2019-01-02T09:30:40.931Z,76.70
2019-01-02T09:33:52.238Z,76.70
2019-01-02T09:37:07.479Z,76.60
2019-01-02T09:40:06.618Z,76.40
2019-01-02T09:43:00.484Z,76.50
2019-01-02T09:45:58.855Z,76.40
2019-01-02T09:48:54.154Z,76.40
2019-01-02T09:52:19.240Z,76.40
2019-01-02T09:55:09.483Z,76.30
2019-01-02T09:58:22.804Z,76.10
2019-01-02T10:01:08.324Z,76.10
2019-01-02T10:04:14.364Z,76.70
2019-01-02T10:07:33.850Z,75.90
2019-01-02T10:10:39.753Z,75.80
2019-01-02T10:14:20.290Z,75.80
2019-01-02T10:17:32.029Z,75.60
2019-01-02T10:20:43.979Z,75.50
2019-01-02T10:23:39.284Z,75.50
2019-01-02T10:26:48.628Z,75.50
2019-01-02T10:29:45.016Z,76.20
2019-01-02T10:32:51.205Z,75.40
2019-01-02T10:35:48.711Z,75.40
2019-01-02T10:39:00.153Z,75.30
2019-01-02T10:42:20.527Z,75.10
2019-01-02T10:45:35.984Z,75.10
2019-01-02T10:48:40.005Z,75.10
2019-01-02T10:52:01.856Z,75.20
2019-01-02T10:54:58.019Z,75.00
2019-01-02T10:57:46.922Z,74.80
2019-01-02T11:00:26.519Z,74.60
2019-01-02T11:03:39.751Z,74.70
2019-01-02T11:06:31.217Z,74.50
2019-01-02T11:09:29.094Z,74.50
2019-01-02T11:12:35.191Z,74.50
2019-01-02T11:15:48.496Z,74.40
2019-01-02T11:18:58.873Z,74.60
2019-01-02T11:21:55.774Z,74.60
2019-01-02T11:25:18.906Z,74.60
2019-01-02T11:28:31.529Z,74.50
2019-01-02T11:31:31.236Z,74.30
2019-01-02T11:34:30.987Z,74.10
2019-01-02T11:37:35.525Z,74.10
2019-01-02T11:40:44.329Z,74.10
2019-01-02T11:43:50.928Z,73.90
2019-01-02T11:46:20.301Z,73.70
2019-01-02T11:48:49.712Z,73.60
2019-01-02T11:51:19.021Z,73.40
2019-01-02T11:53:48.382Z,73.30
2019-01-02T11:56:17.806Z,73.20
2019-01-02T11:58:50.079Z,73.20
2019-01-02T12:01:18.432Z,73.20
2019-01-02T12:03:47.714Z,73.10
2019-01-02T12:06:17.089Z,73.00
2019-01-02T12:08:46.590Z,73.00
2019-01-02T12:11:16.229Z,73.00
2019-01-02T12:13:45.735Z,72.90
2019-01-02T12:16:15.402Z,72.70
2019-01-02T12:18:44.914Z,72.70
2019-01-02T12:21:14.450Z,72.70
2019-01-02T12:23:44.038Z,72.70
2019-01-02T12:26:13.552Z,72.50
2019-01-02T12:28:43.599Z,72.50
2019-01-02T12:31:13.264Z,72.50
2019-01-02T12:33:42.667Z,72.20
2019-01-02T12:36:12.250Z,72.00
2019-01-02T12:38:42.057Z,71.90
2019-01-02T12:41:11.422Z,71.70
2019-01-02T12:43:40.745Z,71.60
2019-01-02T12:46:10.105Z,71.40
2019-01-02T12:48:39.894Z,71.40
2019-01-02T12:51:09.311Z,71.40
2019-01-02T12:53:43.720Z,71.30
2019-01-02T12:56:09.701Z,71.30
2019-01-02T12:58:39.106Z,71.10
2019-01-02T13:01:08.898Z,70.90
2019-01-02T13:04:22.470Z,71.00
2019-01-02T13:07:44.886Z,71.10
2019-01-02T13:10:42.109Z,70.80
2019-01-02T13:13:48.083Z,70.50
2019-01-02T13:16:28.598Z,70.40
2019-01-02T13:19:43.702Z,70.10
2019-01-02T13:22:56.746Z,70.00
2019-01-02T13:25:51.564Z,69.70
2019-01-02T13:28:38.263Z,69.70
2019-01-02T13:31:57.707Z,69.70
2019-01-02T13:34:59.062Z,69.50
2019-01-02T13:38:01.429Z,69.10
2019-01-02T13:41:14.696Z,69.00
2019-01-02T13:43:59.086Z,69.00
2019-01-02T13:46:59.325Z,68.80
2019-01-02T13:50:17.046Z,68.60
2019-01-02T13:52:46.434Z,68.60
2019-01-02T13:55:18.553Z,68.50
2019-01-02T13:57:48.212Z,67.70
2019-01-02T14:00:17.720Z,67.60
2019-01-02T14:02:47.360Z,67.70
2019-01-02T14:05:20.165Z,67.60
2019-01-02T14:07:49.543Z,67.60
2019-01-02T14:10:18.990Z,67.90
2019-01-02T14:12:48.283Z,67.40
2019-01-02T14:15:18.040Z,67.40
2019-01-02T14:17:47.434Z,67.50
2019-01-02T14:20:16.864Z,67.50
2019-01-02T14:22:46.263Z,67.40
2019-01-02T14:25:15.655Z,67.40
2019-01-02T14:27:44.969Z,67.50
2019-01-02T14:30:14.256Z,67.40
2019-01-02T14:32:43.582Z,67.30
2019-01-02T14:35:12.991Z,67.20
2019-01-02T14:37:42.320Z,67.50
2019-01-02T14:40:11.782Z,68.00
2019-01-02T14:42:41.170Z,68.30
2019-01-02T14:45:10.766Z,68.30
2019-01-02T14:47:40.202Z,68.40
2019-01-02T14:50:09.770Z,68.50
2019-01-02T14:52:43.231Z,68.60
2019-01-02T14:55:10.227Z,68.60
2019-01-02T14:57:39.663Z,68.70
2019-01-02T15:00:12.363Z,68.70
2019-01-02T15:02:41.770Z,68.70
2019-01-02T15:05:11.143Z,68.70
2019-01-02T15:07:40.499Z,68.80
2019-01-02T15:10:12.596Z,68.90
2019-01-02T15:12:42.024Z,69.00
2019-01-02T15:15:11.736Z,69.10
2019-01-02T15:17:41.154Z,69.20
2019-01-02T15:20:11.835Z,69.20
2019-01-02T15:22:41.308Z,69.10
2019-01-02T15:25:10.754Z,69.00
2019-01-02T15:27:40.388Z,69.00
2019-01-02T15:30:12.421Z,69.00
2019-01-02T15:32:41.837Z,69.10
2019-01-02T15:35:11.242Z,69.00
2019-01-02T15:37:40.725Z,69.20
2019-01-02T15:40:11.477Z,69.30
2019-01-02T15:42:41.042Z,69.40
2019-01-02T15:45:10.916Z,69.40
2019-01-02T15:47:40.355Z,69.50
2019-01-02T15:50:11.060Z,69.60
2019-01-02T15:52:40.414Z,69.60
2019-01-02T15:55:09.832Z,69.70
2019-01-02T15:57:39.217Z,69.90
2019-01-02T16:00:11.541Z,69.90
2019-01-02T16:02:40.953Z,69.90
2019-01-02T16:05:10.330Z,70.00
2019-01-02T16:07:39.735Z,70.10
2019-01-02T16:10:10.546Z,70.10
2019-01-02T16:12:45.795Z,70.10
2019-01-02T16:15:11.585Z,70.20
2019-01-02T16:17:41.009Z,70.10
2019-01-02T16:20:11.279Z,70.10
2019-01-02T16:22:40.709Z,70.10
2019-01-02T16:25:10.962Z,70.20
2019-01-02T16:27:40.518Z,70.10
2019-01-02T16:30:10.855Z,70.20
2019-01-02T16:32:40.570Z,70.30
2019-01-02T16:35:09.947Z,70.30
2019-01-02T16:37:39.426Z,70.30
2019-01-02T16:40:11.312Z,70.30
2019-01-02T16:42:40.811Z,70.40
2019-01-02T16:45:10.187Z,70.50
2019-01-02T16:47:39.575Z,70.60
2019-01-02T16:50:10.201Z,70.50
2019-01-02T16:52:39.580Z,70.50
2019-01-02T16:55:08.920Z,70.50
2019-01-02T16:57:38.286Z,70.60
2019-01-02T17:00:10.146Z,70.70
2019-01-02T17:02:39.549Z,70.70
2019-01-02T17:05:09.210Z,70.90
2019-01-02T17:07:38.569Z,70.90
2019-01-02T17:10:09.862Z,71.00
2019-01-02T17:12:39.166Z,71.10
2019-01-02T17:15:08.554Z,71.00
2019-01-02T17:17:37.957Z,71.10
2019-01-02T17:20:08.452Z,71.10
2019-01-02T17:22:37.882Z,71.00
2019-01-02T17:25:09.758Z,71.10
2019-01-02T17:27:39.356Z,71.10
2019-01-02T17:30:09.516Z,71.20
2019-01-02T17:32:39.310Z,71.20
2019-01-02T17:35:09.276Z,71.40
2019-01-02T17:37:38.675Z,71.40
2019-01-02T17:40:09.274Z,71.40
2019-01-02T17:42:38.964Z,71.40
2019-01-02T17:45:09.971Z,71.40
2019-01-02T17:47:39.651Z,71.40
2019-01-02T17:50:10.755Z,71.40
2019-01-02T17:52:40.518Z,71.40
2019-01-02T17:55:09.936Z,71.40
2019-01-02T17:57:39.307Z,71.40
2019-01-02T18:00:11.384Z,71.40
2019-01-02T18:02:40.814Z,71.40
2019-01-02T18:05:10.601Z,71.40
2019-01-02T18:07:40.181Z,71.40
2019-01-02T18:10:10.390Z,71.40
2019-01-02T18:12:40.099Z,71.40
2019-01-02T18:15:09.584Z,71.40
2019-01-02T18:17:39.317Z,71.30
2019-01-02T18:20:10.342Z,71.30
2019-01-02T18:22:40.031Z,71.30
2019-01-02T18:25:09.517Z,71.30
2019-01-02T18:27:38.843Z,71.50
2019-01-02T18:30:10.601Z,71.50
2019-01-02T18:32:40.487Z,71.50
2019-01-02T18:35:10.110Z,71.60
2019-01-02T18:37:39.483Z,71.70
2019-01-02T18:40:09.278Z,71.70
2019-01-02T18:42:38.934Z,71.80
2019-01-02T18:45:09.082Z,71.70
2019-01-02T18:47:38.485Z,71.80
2019-01-02T18:50:10.438Z,71.80
2019-01-02T18:52:39.746Z,72.00
2019-01-02T18:55:09.437Z,72.10
2019-01-02T18:57:38.860Z,71.90
2019-01-02T19:00:10.885Z,71.90
2019-01-02T19:02:40.269Z,72.10
2019-01-02T19:05:09.898Z,72.00
2019-01-02T19:07:39.569Z,72.00
2019-01-02T19:10:08.880Z,72.00
2019-01-02T19:12:38.326Z,72.00
2019-01-02T19:15:08.486Z,72.10
2019-01-02T19:17:38.102Z,72.10
2019-01-02T19:20:07.550Z,72.20
2019-01-02T19:22:37.488Z,72.20
2019-01-02T19:25:07.604Z,72.30
2019-01-02T19:27:37.211Z,72.20
2019-01-02T19:30:07.774Z,72.30
2019-01-02T19:32:37.618Z,72.30
2019-01-02T19:35:07.274Z,72.30
2019-01-02T19:37:36.662Z,72.40
2019-01-02T19:40:06.346Z,72.30
2019-01-02T19:42:36.095Z,72.30
2019-01-02T19:45:07.106Z,72.30
2019-01-02T19:47:36.879Z,72.30
2019-01-02T19:50:07.037Z,72.20
2019-01-02T19:52:36.399Z,72.20
2019-01-02T19:55:06.333Z,72.30
2019-01-02T19:57:36.078Z,72.30
2019-01-02T20:00:06.856Z,72.40
2019-01-02T20:02:36.281Z,72.50
2019-01-02T20:05:06.002Z,72.40
2019-01-02T20:07:35.405Z,72.60
2019-01-02T20:10:05.864Z,72.60
2019-01-02T20:12:35.306Z,72.60
2019-01-02T20:15:05.063Z,72.60
2019-01-02T20:17:38.847Z,72.70
2019-01-02T20:20:05.894Z,72.80
2019-01-02T20:22:35.689Z,72.80
2019-01-02T20:25:05.081Z,72.80
2019-01-02T20:27:34.833Z,72.90
2019-01-02T20:30:04.792Z,73.00
2019-01-02T20:32:34.269Z,73.00
2019-01-02T20:35:04.066Z,73.00
2019-01-02T20:37:33.530Z,73.00
2019-01-02T20:40:02.917Z,73.00
2019-01-02T20:42:32.702Z,72.90
2019-01-02T20:45:02.951Z,73.00
2019-01-02T20:47:32.300Z,72.90
2019-01-02T20:50:01.782Z,72.90
2019-01-02T20:52:31.188Z,72.90
2019-01-02T20:55:00.819Z,72.90
2019-01-02T20:57:30.261Z,72.90
2019-01-02T20:59:59.709Z,72.80
2019-01-02T21:02:29.045Z,72.90
2019-01-02T21:04:58.454Z,72.90
2019-01-02T21:07:28.009Z,72.90
2019-01-02T21:09:57.294Z,73.00
2019-01-02T21:12:26.707Z,73.00
2019-01-02T21:14:56.021Z,72.90
2019-01-02T21:17:25.657Z,73.00
2019-01-02T21:19:55.104Z,73.10
2019-01-02T21:22:24.455Z,73.30
2019-01-02T21:24:53.837Z,73.30
2019-01-02T21:27:23.524Z,73.20
2019-01-02T21:29:53.262Z,73.30
2019-01-02T21:32:23.038Z,73.20
2019-01-02T21:34:52.414Z,73.30
2019-01-02T21:37:22.093Z,73.20
2019-01-02T21:39:51.833Z,73.30
2019-01-02T21:42:21.473Z,73.30
2019-01-02T21:44:50.875Z,73.20
2019-01-02T21:47:20.261Z,73.30
2019-01-02T21:49:49.817Z,73.30
2019-01-02T21:52:19.193Z,73.40
2019-01-02T21:54:48.543Z,73.30
2019-01-02T21:57:17.886Z,73.30
2019-01-02T21:59:47.433Z,73.40
2019-01-02T22:02:16.819Z,73.40
2019-01-02T22:04:46.206Z,73.30
2019-01-02T22:07:15.926Z,73.40
2019-01-02T22:09:45.449Z,73.40
2019-01-02T22:12:14.861Z,73.30
2019-01-02T22:14:44.559Z,73.40
2019-01-02T22:17:13.985Z,73.50
2019-01-02T22:19:43.397Z,73.40
2019-01-02T22:22:12.833Z,73.40
2019-01-02T22:24:42.230Z,73.50
2019-01-02T22:27:11.627Z,73.50
2019-01-02T22:29:40.924Z,73.60
2019-01-02T22:32:10.352Z,73.50
2019-01-02T22:34:39.657Z,74.30
2019-01-02T22:37:09.253Z,73.50
2019-01-02T22:39:39.005Z,73.60
2019-01-02T22:42:08.433Z,73.60
2019-01-02T22:44:37.761Z,73.60
2019-01-02T22:47:07.355Z,73.60
2019-01-02T22:49:36.780Z,73.50
2019-01-02T22:52:06.224Z,73.60
2019-01-02T22:54:35.540Z,73.50
2019-01-02T22:57:04.990Z,73.50
2019-01-02T22:59:34.373Z,73.50
2019-01-02T23:02:21.410Z,73.70
2019-01-02T23:05:09.223Z,73.50
2019-01-02T23:08:05.968Z,73.50
2019-01-02T23:10:53.097Z,73.40
2019-01-02T23:13:50.596Z,73.50
2019-01-02T23:16:50.779Z,73.50
2019-01-02T23:19:30.476Z,73.60
2019-01-02T23:22:26.847Z,73.50
2019-01-02T23:25:04.236Z,73.60
2019-01-02T23:28:01.651Z,73.70
2019-01-02T23:30:48.650Z,73.70
2019-01-02T23:33:55.315Z,73.70
2019-01-02T23:36:43.851Z,73.70
2019-01-02T23:39:41.339Z,73.70
2019-01-02T23:42:31.140Z,73.70
2019-01-02T23:45:19.466Z,73.70
2019-01-02T23:48:06.358Z,73.80
2019-01-02T23:50:57.744Z,73.80
2019-01-02T23:54:04.077Z,73.80
2019-01-02T23:57:02.039Z,73.80
2019-01-02T23:59:50.427Z,73.80
